createdAt,value
2019-02-10T00:00:41.713Z,3.35
2019-02-10T00:01:49.801Z,4.10
2019-02-10T00:02:54.873Z,3.90
2019-02-10T00:04:00.408Z,4.00
2019-02-10T00:05:06.092Z,3.60
2019-02-10T00:06:11.417Z,4.03
2019-02-10T00:07:16.922Z,3.50
2019-02-10T00:08:21.959Z,5.20
2019-02-10T00:09:27.725Z,3.67
2019-02-10T00:10:32.815Z,4.35
2019-02-10T00:11:37.785Z,5.30
2019-02-10T00:13:03.598Z,3.92
2019-02-10T00:14:08.672Z,4.90
2019-02-10T00:15:13.967Z,4.30
2019-02-10T00:16:20.506Z,3.20
2019-02-10T00:17:25.536Z,5.28
2019-02-10T00:18:31.435Z,3.70
2019-02-10T00:19:36.717Z,3.83
2019-02-10T00:20:41.723Z,3.62
2019-02-10T00:21:46.722Z,4.10
2019-02-10T00:22:51.766Z,4.30
2019-02-10T00:23:56.901Z,3.10
2019-02-10T00:25:02.359Z,3.72
2019-02-10T00:26:07.739Z,4.12
2019-02-10T00:27:13.165Z,5.35
2019-02-10T00:28:18.257Z,3.40
2019-02-10T00:29:23.252Z,4.25
2019-02-10T00:30:28.295Z,4.72
2019-02-10T00:31:33.424Z,3.98
2019-02-10T00:32:38.944Z,4.22
2019-02-10T00:33:44.256Z,4.25
2019-02-10T00:34:49.589Z,3.55
2019-02-10T00:35:54.699Z,3.33
2019-02-10T00:36:59.776Z,3.65
2019-02-10T00:38:05.397Z,3.52
2019-02-10T00:39:10.566Z,4.00
2019-02-10T00:40:15.484Z,3.30
2019-02-10T00:41:20.671Z,3.58
2019-02-10T00:42:25.695Z,3.75
2019-02-10T00:43:31.159Z,3.65
2019-02-10T00:44:36.142Z,3.83
2019-02-10T00:45:41.298Z,4.20
2019-02-10T00:46:46.317Z,4.47
2019-02-10T00:47:51.365Z,3.83
2019-02-10T00:48:56.460Z,4.08
2019-02-10T00:50:01.908Z,3.10
2019-02-10T00:51:07.216Z,3.85
2019-02-10T00:52:12.303Z,4.15
2019-02-10T00:53:17.247Z,4.37
2019-02-10T00:54:22.305Z,3.58
2019-02-10T00:55:28.075Z,3.58
2019-02-10T00:56:33.361Z,3.90
2019-02-10T00:57:39.007Z,3.70
2019-02-10T00:58:44.751Z,4.03
2019-02-10T00:59:49.755Z,3.70
2019-02-10T01:00:54.962Z,3.95
2019-02-10T01:02:00.017Z,3.42
2019-02-10T01:03:05.292Z,3.20
2019-02-10T01:04:10.691Z,3.45
2019-02-10T01:05:16.030Z,3.92
2019-02-10T01:06:21.389Z,4.60
2019-02-10T01:07:26.516Z,3.58
2019-02-10T01:08:31.674Z,3.58
2019-02-10T01:09:36.653Z,3.65
2019-02-10T01:10:41.716Z,3.02
2019-02-10T01:11:46.796Z,3.52
2019-02-10T01:12:51.794Z,3.22
2019-02-10T01:13:56.897Z,3.67
2019-02-10T01:15:02.288Z,4.67
2019-02-10T01:16:07.644Z,3.83
2019-02-10T01:17:13.550Z,4.30
2019-02-10T01:18:18.978Z,3.80
2019-02-10T01:19:24.025Z,3.92
2019-02-10T01:20:29.188Z,4.17
2019-02-10T01:21:34.238Z,3.20
2019-02-10T01:22:39.303Z,3.55
2019-02-10T01:23:44.706Z,3.25
2019-02-10T01:24:50.069Z,3.90
2019-02-10T01:25:55.054Z,3.50
2019-02-10T01:27:00.060Z,3.37
2019-02-10T01:28:05.282Z,3.87
2019-02-10T01:29:11.154Z,3.80
2019-02-10T01:30:16.706Z,4.30
2019-02-10T01:31:22.117Z,4.50
2019-02-10T01:32:27.160Z,4.78
2019-02-10T01:33:32.462Z,4.03
2019-02-10T01:34:37.511Z,3.90
2019-02-10T01:35:43.172Z,4.60
2019-02-10T01:36:49.821Z,3.50
2019-02-10T01:37:55.074Z,4.10
2019-02-10T01:39:00.184Z,3.50
2019-02-10T01:40:06.281Z,4.30
2019-02-10T01:41:11.647Z,3.95
2019-02-10T01:42:17.062Z,3.87
2019-02-10T01:43:22.070Z,4.28
2019-02-10T01:44:27.113Z,4.50
2019-02-10T01:45:32.293Z,4.00
2019-02-10T01:46:37.572Z,3.80
2019-02-10T01:47:42.561Z,3.95
2019-02-10T01:48:47.658Z,3.72
2019-02-10T01:49:52.703Z,3.20
2019-02-10T01:50:57.857Z,4.37
2019-02-10T01:52:03.324Z,6.08
2019-02-10T01:53:08.327Z,5.55
2019-02-10T01:54:13.430Z,3.92
2019-02-10T01:55:18.473Z,4.67
2019-02-10T01:56:23.763Z,4.40
2019-02-10T01:57:28.998Z,3.55
2019-02-10T01:58:33.963Z,4.50
2019-02-10T01:59:39.010Z,4.28
2019-02-10T02:00:44.146Z,4.28
2019-02-10T02:01:49.494Z,4.28
2019-02-10T02:02:54.865Z,3.42
2019-02-10T02:03:59.863Z,3.15
2019-02-10T02:05:06.632Z,4.28
2019-02-10T02:06:11.747Z,3.33
2019-02-10T02:07:16.802Z,4.72
2019-02-10T02:08:21.875Z,3.42
2019-02-10T02:09:27.030Z,3.62
2019-02-10T02:10:32.150Z,4.20
2019-02-10T02:11:37.622Z,3.87
2019-02-10T02:12:42.660Z,4.45
2019-02-10T02:13:48.089Z,4.10
2019-02-10T02:14:53.121Z,3.50
2019-02-10T02:15:58.765Z,4.00
2019-02-10T02:17:03.914Z,4.67
2019-02-10T02:18:09.331Z,4.30
2019-02-10T02:19:14.390Z,4.00
2019-02-10T02:20:19.589Z,3.72
2019-02-10T02:21:24.891Z,4.22
2019-02-10T02:22:29.914Z,3.75
2019-02-10T02:23:34.912Z,4.10
2019-02-10T02:24:39.844Z,3.92
2019-02-10T02:25:44.826Z,4.60
2019-02-10T02:26:49.829Z,3.95
2019-02-10T02:27:54.880Z,3.92
2019-02-10T02:28:59.984Z,3.17
2019-02-10T02:30:07.108Z,4.12
2019-02-10T02:31:12.310Z,3.20
2019-02-10T02:32:17.405Z,4.30
2019-02-10T02:33:22.395Z,4.87
2019-02-10T02:34:27.438Z,4.12
2019-02-10T02:35:32.471Z,3.77
2019-02-10T02:36:42.208Z,4.08
2019-02-10T02:37:47.409Z,4.62
2019-02-10T02:38:52.522Z,4.85
2019-02-10T02:39:57.510Z,3.37
2019-02-10T02:41:02.536Z,3.47
2019-02-10T02:42:09.552Z,3.80
2019-02-10T02:43:14.573Z,3.58
2019-02-10T02:44:19.606Z,3.70
2019-02-10T02:45:24.521Z,3.15
2019-02-10T02:46:29.564Z,3.12
2019-02-10T02:47:34.589Z,3.30
2019-02-10T02:48:39.553Z,3.40
2019-02-10T02:49:44.579Z,3.90
2019-02-10T02:50:50.153Z,3.60
2019-02-10T02:51:55.171Z,3.17
2019-02-10T02:53:00.515Z,3.42
2019-02-10T02:54:05.499Z,3.83
2019-02-10T02:55:10.923Z,3.60
2019-02-10T02:56:16.318Z,3.60
2019-02-10T02:57:21.823Z,3.52
2019-02-10T02:58:26.878Z,3.65
2019-02-10T02:59:32.182Z,3.40
2019-02-10T03:00:37.217Z,4.10
2019-02-10T03:01:42.602Z,3.67
2019-02-10T03:02:47.545Z,4.28
2019-02-10T03:03:52.729Z,3.22
2019-02-10T03:04:57.642Z,4.40
2019-02-10T03:06:02.927Z,3.62
2019-02-10T03:07:17.552Z,3.92
2019-02-10T03:08:14.897Z,3.67
2019-02-10T03:09:20.707Z,4.08
2019-02-10T03:10:25.917Z,5.20
2019-02-10T03:11:31.214Z,3.85
2019-02-10T03:12:36.653Z,3.80
2019-02-10T03:13:41.672Z,3.00
2019-02-10T03:14:46.801Z,3.83
2019-02-10T03:15:52.100Z,3.77
2019-02-10T03:16:57.088Z,3.90
2019-02-10T03:18:02.420Z,3.65
2019-02-10T03:19:07.596Z,4.95
2019-02-10T03:20:12.764Z,3.80
2019-02-10T03:21:17.708Z,3.67
2019-02-10T03:22:22.670Z,4.10
2019-02-10T03:23:27.877Z,4.05
2019-02-10T03:24:33.273Z,4.00
2019-02-10T03:25:38.597Z,2.80
2019-02-10T03:26:43.565Z,4.95
2019-02-10T03:27:48.545Z,4.35
2019-02-10T03:28:53.633Z,4.70
2019-02-10T03:29:59.388Z,3.72
2019-02-10T03:31:04.806Z,4.33
2019-02-10T03:32:09.878Z,3.72
2019-02-10T03:33:15.311Z,4.30
2019-02-10T03:34:20.787Z,4.53
2019-02-10T03:35:25.814Z,3.17
2019-02-10T03:36:30.844Z,3.90
2019-02-10T03:37:36.153Z,3.67
2019-02-10T03:38:41.092Z,5.30
2019-02-10T03:39:46.307Z,4.33
2019-02-10T03:40:51.625Z,5.80
2019-02-10T03:41:56.787Z,5.30
2019-02-10T03:43:01.806Z,3.30
2019-02-10T03:44:06.791Z,3.72
2019-02-10T03:45:12.067Z,3.92
2019-02-10T03:46:17.420Z,3.50
2019-02-10T03:47:22.742Z,3.83
2019-02-10T03:48:28.166Z,4.08
2019-02-10T03:49:33.276Z,2.95
2019-02-10T03:50:38.445Z,3.20
2019-02-10T03:51:43.731Z,3.67
2019-02-10T03:52:48.792Z,5.00
2019-02-10T03:53:53.840Z,2.83
2019-02-10T03:54:58.994Z,4.55
2019-02-10T03:56:04.016Z,3.60
2019-02-10T03:57:08.978Z,3.47
2019-02-10T03:58:14.084Z,4.03
2019-02-10T03:59:19.773Z,3.90
2019-02-10T04:00:24.801Z,4.30
2019-02-10T04:01:30.310Z,3.20
2019-02-10T04:02:35.639Z,3.08
2019-02-10T04:03:40.716Z,4.08
2019-02-10T04:04:46.059Z,4.05
2019-02-10T04:05:51.091Z,3.50
2019-02-10T04:06:56.057Z,3.08
2019-02-10T04:08:01.128Z,3.80
2019-02-10T04:09:07.253Z,2.77
2019-02-10T04:10:12.499Z,3.70
2019-02-10T04:11:17.753Z,4.08
2019-02-10T04:12:22.799Z,3.50
2019-02-10T04:13:27.843Z,3.08
2019-02-10T04:14:32.902Z,3.40
2019-02-10T04:15:37.878Z,3.55
2019-02-10T04:16:42.840Z,4.22
2019-02-10T04:17:48.129Z,4.25
2019-02-10T04:18:53.333Z,3.12
2019-02-10T04:19:58.372Z,4.33
2019-02-10T04:21:03.426Z,3.70
2019-02-10T04:22:08.519Z,3.17
2019-02-10T04:23:13.468Z,3.08
2019-02-10T04:24:18.735Z,3.90
2019-02-10T04:25:23.748Z,3.17
2019-02-10T04:26:28.822Z,4.50
2019-02-10T04:27:34.095Z,3.37
2019-02-10T04:28:39.135Z,3.70
2019-02-10T04:29:44.295Z,2.95
2019-02-10T04:30:49.261Z,3.25
2019-02-10T04:31:54.324Z,2.50
2019-02-10T04:32:59.382Z,4.35
2019-02-10T04:34:04.400Z,4.30
2019-02-10T04:35:09.413Z,3.45
2019-02-10T04:36:14.457Z,3.05
2019-02-10T04:37:19.802Z,3.40
2019-02-10T04:38:24.961Z,3.15
2019-02-10T04:39:29.998Z,4.42
2019-02-10T04:40:35.081Z,3.80
2019-02-10T04:41:40.370Z,4.53
2019-02-10T04:42:45.428Z,3.20
2019-02-10T04:43:50.371Z,3.72
2019-02-10T04:44:55.386Z,3.87
2019-02-10T04:46:00.626Z,3.20
2019-02-10T04:47:05.771Z,3.02
2019-02-10T04:48:10.757Z,3.77
2019-02-10T04:49:16.019Z,3.37
2019-02-10T04:50:21.588Z,2.70
2019-02-10T04:51:26.583Z,4.15
2019-02-10T04:52:31.801Z,4.10
2019-02-10T04:53:36.948Z,2.90
2019-02-10T04:54:41.912Z,3.17
2019-02-10T04:56:10.264Z,4.08
2019-02-10T04:57:15.207Z,2.90
2019-02-10T04:58:20.319Z,2.33
2019-02-10T04:59:25.327Z,3.15
2019-02-10T05:00:30.374Z,3.10
2019-02-10T05:01:35.326Z,2.92
2019-02-10T05:02:40.572Z,2.83
2019-02-10T05:03:45.478Z,3.98
2019-02-10T05:04:50.980Z,2.75
2019-02-10T05:05:55.999Z,2.52
2019-02-10T05:07:01.381Z,3.00
2019-02-10T05:08:06.972Z,3.15
2019-02-10T05:09:12.270Z,2.83
2019-02-10T05:10:17.271Z,2.45
2019-02-10T05:11:22.217Z,2.72
2019-02-10T05:12:27.494Z,3.37
2019-02-10T05:13:32.638Z,2.98
2019-02-10T05:14:37.590Z,2.67
2019-02-10T05:15:42.594Z,2.87
2019-02-10T05:16:47.590Z,2.60
2019-02-10T05:17:52.523Z,3.12
2019-02-10T05:18:57.567Z,3.22
2019-02-10T05:20:02.552Z,4.15
2019-02-10T05:21:07.551Z,3.70
2019-02-10T05:22:12.585Z,3.42
2019-02-10T05:23:18.152Z,3.83
2019-02-10T05:24:23.303Z,2.77
2019-02-10T05:25:28.747Z,2.75
2019-02-10T05:26:33.780Z,3.00
2019-02-10T05:27:39.306Z,2.92
2019-02-10T05:28:44.745Z,3.12
2019-02-10T05:29:49.704Z,2.65
2019-02-10T05:30:55.025Z,3.22
2019-02-10T05:32:00.393Z,2.85
2019-02-10T05:33:05.560Z,3.02
2019-02-10T05:34:10.537Z,2.90
2019-02-10T05:35:15.559Z,2.95
2019-02-10T05:36:21.219Z,2.55
2019-02-10T05:37:26.633Z,2.62
2019-02-10T05:38:31.953Z,2.40
2019-02-10T05:39:36.929Z,3.00
2019-02-10T05:40:42.000Z,2.77
2019-02-10T05:41:47.059Z,3.08
2019-02-10T05:42:52.020Z,3.00
2019-02-10T05:43:57.060Z,3.10
2019-02-10T05:45:02.423Z,4.30
2019-02-10T05:46:07.379Z,2.87
2019-02-10T05:47:12.317Z,2.60
2019-02-10T05:48:17.306Z,2.25
2019-02-10T05:49:22.324Z,2.90
2019-02-10T05:50:28.280Z,2.55
2019-02-10T05:51:33.527Z,2.52
2019-02-10T05:52:38.511Z,2.08
2019-02-10T05:53:43.569Z,2.90
2019-02-10T05:54:48.549Z,2.83
2019-02-10T05:55:54.694Z,2.87
2019-02-10T05:56:59.597Z,2.80
2019-02-10T05:58:04.643Z,2.83
2019-02-10T05:59:10.004Z,2.70
2019-02-10T06:00:15.071Z,2.75
2019-02-10T06:02:44.366Z,2.30
2019-02-10T06:03:49.719Z,2.60
2019-02-10T06:04:54.976Z,2.15
2019-02-10T06:05:59.934Z,2.50
2019-02-10T06:07:08.873Z,2.70
2019-02-10T06:08:14.246Z,3.25
2019-02-10T06:09:19.663Z,2.37
2019-02-10T06:10:24.737Z,3.37
2019-02-10T06:11:29.822Z,1.92
2019-02-10T06:12:34.823Z,2.90
2019-02-10T06:13:40.029Z,2.30
2019-02-10T06:14:46.429Z,2.52
2019-02-10T06:15:51.762Z,2.47
2019-02-10T06:16:56.974Z,2.85
2019-02-10T06:18:02.022Z,3.05
2019-02-10T06:19:07.028Z,2.50
2019-02-10T06:20:12.091Z,3.27
2019-02-10T06:21:17.310Z,2.95
2019-02-10T06:22:22.561Z,2.67
2019-02-10T06:23:27.562Z,3.37
2019-02-10T06:24:33.072Z,2.87
2019-02-10T06:25:38.082Z,2.22
2019-02-10T06:26:43.505Z,2.50
2019-02-10T06:27:49.232Z,1.95
2019-02-10T06:28:54.211Z,2.27
2019-02-10T06:29:59.719Z,2.55
2019-02-10T06:31:04.988Z,3.17
2019-02-10T06:32:10.263Z,2.35
2019-02-10T06:33:15.671Z,2.42
2019-02-10T06:34:20.670Z,3.17
2019-02-10T06:35:26.083Z,2.87
2019-02-10T06:36:31.053Z,2.58
2019-02-10T06:37:36.070Z,2.70
2019-02-10T06:38:41.332Z,2.30
2019-02-10T06:39:46.812Z,2.52
2019-02-10T06:40:51.757Z,2.33
2019-02-10T06:41:56.708Z,3.30
2019-02-10T06:43:01.650Z,3.12
2019-02-10T06:44:07.031Z,3.47
2019-02-10T06:45:15.094Z,3.45
2019-02-10T06:46:20.384Z,3.20
2019-02-10T06:47:25.344Z,3.55
2019-02-10T06:48:30.948Z,3.20
2019-02-10T06:49:35.989Z,2.80
2019-02-10T06:50:40.962Z,2.80
2019-02-10T06:51:45.910Z,3.17
2019-02-10T06:52:51.705Z,3.20
2019-02-10T06:53:56.997Z,2.65
2019-02-10T06:55:02.068Z,1.90
2019-02-10T06:56:07.591Z,1.85
2019-02-10T06:57:13.267Z,2.67
2019-02-10T06:58:18.333Z,2.60
2019-02-10T06:59:42.498Z,2.02
2019-02-10T07:01:09.517Z,3.42
2019-02-10T07:02:46.632Z,2.15
2019-02-10T07:04:04.098Z,3.60
2019-02-10T07:05:10.882Z,1.98
2019-02-10T07:06:16.323Z,2.05
2019-02-10T07:07:21.303Z,1.72
2019-02-10T07:08:30.581Z,1.75
2019-02-10T07:09:33.043Z,1.80
2019-02-10T07:10:38.346Z,2.15
2019-02-10T07:11:43.675Z,1.70
2019-02-10T07:12:52.806Z,2.42
2019-02-10T07:13:59.673Z,2.15
2019-02-10T07:15:04.797Z,1.60
2019-02-10T07:16:35.538Z,2.00
2019-02-10T07:18:16.162Z,1.72
2019-02-10T07:19:57.430Z,1.62
2019-02-10T07:21:03.183Z,1.75
2019-02-10T07:22:54.805Z,1.72
2019-02-10T07:24:35.697Z,1.50
2019-02-10T07:26:00.929Z,1.47
2019-02-10T07:27:13.584Z,1.75
2019-02-10T07:28:44.792Z,1.75
2019-02-10T07:30:28.195Z,3.30
2019-02-10T07:31:41.616Z,1.30
2019-02-10T07:32:49.822Z,1.40
2019-02-10T07:34:48.202Z,1.80
2019-02-10T07:36:33.131Z,2.08
2019-02-10T07:38:18.837Z,1.70
2019-02-10T07:39:41.955Z,1.35
2019-02-10T07:41:39.602Z,1.50
2019-02-10T07:43:18.988Z,1.57
2019-02-10T07:44:51.025Z,1.30
2019-02-10T07:46:46.374Z,1.30
2019-02-10T07:48:17.729Z,1.50
2019-02-10T07:49:51.696Z,1.20
2019-02-10T07:51:46.774Z,1.45
2019-02-10T07:53:29.406Z,1.20
2019-02-10T07:55:21.834Z,1.40
2019-02-10T07:57:20.348Z,1.27
2019-02-10T07:58:50.687Z,1.25
2019-02-10T08:00:25.555Z,1.70
2019-02-10T08:01:57.381Z,1.10
2019-02-10T08:03:24.846Z,1.40
2019-02-10T08:04:58.231Z,1.12
2019-02-10T08:06:42.581Z,1.30
2019-02-10T08:08:02.778Z,1.25
2019-02-10T08:09:22.032Z,1.47
2019-02-10T08:10:56.511Z,1.12
2019-02-10T08:12:29.762Z,1.30
2019-02-10T08:14:06.884Z,1.10
2019-02-10T08:15:40.948Z,1.20
2019-02-10T08:17:16.509Z,1.10
2019-02-10T08:19:09.108Z,1.15
2019-02-10T08:20:38.328Z,1.12
2019-02-10T08:22:21.711Z,0.98
2019-02-10T08:23:52.913Z,1.25
2019-02-10T08:25:21.847Z,1.17
2019-02-10T08:27:04.027Z,1.25
2019-02-10T08:28:55.032Z,1.22
2019-02-10T08:30:40.462Z,1.30
2019-02-10T08:32:18.485Z,1.20
2019-02-10T08:33:37.615Z,1.15
2019-02-10T08:35:13.511Z,1.05
2019-02-10T08:36:39.348Z,1.10
2019-02-10T08:38:12.355Z,1.37
2019-02-10T08:39:40.092Z,1.10
2019-02-10T08:41:12.707Z,1.10
2019-02-10T08:42:40.414Z,1.25
2019-02-10T08:43:58.194Z,1.50
2019-02-10T08:45:34.308Z,1.22
2019-02-10T08:47:14.770Z,1.05
2019-02-10T08:49:10.586Z,1.35
2019-02-10T08:51:05.909Z,1.10
2019-02-10T08:52:41.155Z,1.20
2019-02-10T08:53:47.665Z,1.20
2019-02-10T08:54:52.698Z,1.35
2019-02-10T08:55:58.114Z,1.17
2019-02-10T08:57:03.247Z,1.35
2019-02-10T08:58:08.490Z,1.25
2019-02-10T08:59:13.848Z,1.57
2019-02-10T09:00:19.224Z,1.00
2019-02-10T09:01:24.260Z,1.25
2019-02-10T09:02:29.477Z,1.00
2019-02-10T09:03:34.514Z,1.17
2019-02-10T09:04:39.611Z,0.95
2019-02-10T09:05:45.022Z,1.45
2019-02-10T09:06:50.037Z,1.27
2019-02-10T09:07:55.040Z,1.30
2019-02-10T09:09:02.546Z,1.25
2019-02-10T09:10:08.650Z,1.10
2019-02-10T09:11:13.957Z,1.10
2019-02-10T09:12:19.102Z,1.00
2019-02-10T09:13:24.196Z,0.95
2019-02-10T09:14:29.509Z,0.90
2019-02-10T09:15:34.795Z,1.20
2019-02-10T09:16:39.785Z,1.00
2019-02-10T09:17:44.909Z,0.95
2019-02-10T09:18:49.997Z,1.02
2019-02-10T09:19:55.555Z,0.90
2019-02-10T09:21:00.666Z,1.22
2019-02-10T09:22:05.674Z,1.05
2019-02-10T09:23:10.758Z,1.10
2019-02-10T09:24:16.088Z,1.60
2019-02-10T09:25:21.121Z,0.95
2019-02-10T09:26:26.361Z,0.98
2019-02-10T09:27:31.592Z,0.90
2019-02-10T09:28:36.693Z,1.00
2019-02-10T09:29:41.963Z,1.02
2019-02-10T09:30:47.047Z,1.10
2019-02-10T09:31:52.206Z,1.00
2019-02-10T09:32:57.182Z,1.00
2019-02-10T09:34:02.188Z,0.80
2019-02-10T09:35:07.807Z,0.90
2019-02-10T09:36:12.798Z,1.30
2019-02-10T09:37:17.964Z,0.98
2019-02-10T09:38:23.022Z,1.10
2019-02-10T09:39:28.094Z,1.00
2019-02-10T09:40:33.029Z,1.00
2019-02-10T09:41:41.073Z,0.90
2019-02-10T09:42:46.175Z,1.00
2019-02-10T09:43:51.537Z,1.02
2019-02-10T09:44:56.794Z,1.10
2019-02-10T09:46:01.784Z,0.80
2019-02-10T09:47:07.172Z,1.10
2019-02-10T09:48:12.270Z,0.90
2019-02-10T09:49:17.689Z,1.00
2019-02-10T09:50:22.707Z,1.00
2019-02-10T09:51:28.264Z,0.90
2019-02-10T09:52:33.321Z,0.90
2019-02-10T09:53:38.655Z,1.10
2019-02-10T09:54:43.827Z,1.00
2019-02-10T09:55:49.206Z,1.00
2019-02-10T09:56:54.280Z,1.00
2019-02-10T09:57:59.340Z,0.90
2019-02-10T09:59:04.380Z,1.00
2019-02-10T10:00:11.897Z,0.80
2019-02-10T10:01:16.981Z,1.00
2019-02-10T10:02:22.288Z,1.02
2019-02-10T10:03:28.887Z,1.10
2019-02-10T10:04:34.500Z,1.20
2019-02-10T10:05:40.023Z,0.98
2019-02-10T10:06:45.019Z,0.95
2019-02-10T10:07:50.045Z,1.02
2019-02-10T10:08:55.034Z,1.10
2019-02-10T10:10:00.298Z,1.07
2019-02-10T10:11:05.656Z,1.30
2019-02-10T10:12:10.753Z,1.40
2019-02-10T10:13:15.825Z,0.98
2019-02-10T10:14:21.197Z,0.95
2019-02-10T10:15:26.607Z,0.90
2019-02-10T10:16:32.098Z,0.90
2019-02-10T10:17:37.257Z,1.27
2019-02-10T10:18:42.740Z,1.05
2019-02-10T10:19:48.115Z,0.85
2019-02-10T10:20:53.196Z,1.20
2019-02-10T10:21:58.191Z,1.00
2019-02-10T10:23:03.489Z,1.10
2019-02-10T10:24:08.526Z,1.15
2019-02-10T10:25:13.966Z,1.12
2019-02-10T10:26:19.027Z,1.00
2019-02-10T10:27:24.094Z,1.07
2019-02-10T10:28:29.285Z,1.10
2019-02-10T10:29:34.531Z,1.50
2019-02-10T10:30:39.940Z,1.00
2019-02-10T10:31:44.995Z,1.25
2019-02-10T10:32:50.805Z,1.10
2019-02-10T10:33:56.989Z,1.57
2019-02-10T10:35:02.009Z,0.90
2019-02-10T10:36:07.095Z,1.00
2019-02-10T10:37:12.053Z,1.12
2019-02-10T10:38:17.410Z,1.10
2019-02-10T10:39:27.365Z,1.50
2019-02-10T10:40:29.233Z,1.20
2019-02-10T10:41:34.312Z,1.20
2019-02-10T10:42:39.373Z,1.10
2019-02-10T10:43:44.545Z,1.10
2019-02-10T10:44:49.660Z,0.90
2019-02-10T10:45:54.837Z,0.90
2019-02-10T10:46:59.799Z,0.90
2019-02-10T10:48:04.906Z,1.22
2019-02-10T10:49:09.836Z,0.90
2019-02-10T10:50:15.314Z,1.05
2019-02-10T10:51:20.536Z,0.90
2019-02-10T10:52:25.929Z,1.00
2019-02-10T10:53:30.985Z,1.30
2019-02-10T10:54:42.666Z,1.00
2019-02-10T10:55:42.666Z,1.27
2019-02-10T10:56:47.639Z,1.10
2019-02-10T10:57:52.597Z,0.90
2019-02-10T10:58:57.576Z,1.00
2019-02-10T11:00:02.904Z,0.95
2019-02-10T11:01:08.176Z,1.00
2019-02-10T11:02:13.483Z,1.10
2019-02-10T11:03:18.707Z,0.80
2019-02-10T11:04:23.946Z,0.90
2019-02-10T11:05:29.043Z,0.90
2019-02-10T11:06:34.093Z,1.00
2019-02-10T11:07:39.302Z,0.95
2019-02-10T11:08:44.792Z,1.02
2019-02-10T11:09:50.120Z,1.10
2019-02-10T11:10:55.458Z,1.10
2019-02-10T11:12:00.357Z,1.00
2019-02-10T11:13:06.029Z,1.10
2019-02-10T11:14:11.275Z,1.02
2019-02-10T11:15:16.679Z,1.65
2019-02-10T11:16:21.911Z,0.90
2019-02-10T11:17:26.863Z,1.20
2019-02-10T11:18:31.976Z,1.12
2019-02-10T11:19:36.912Z,1.00
2019-02-10T11:20:42.140Z,0.90
2019-02-10T11:21:47.086Z,1.20
2019-02-10T11:22:52.232Z,1.00
2019-02-10T11:23:57.323Z,1.00
2019-02-10T11:25:02.312Z,0.95
2019-02-10T11:26:07.367Z,1.20
2019-02-10T11:27:12.609Z,1.00
2019-02-10T11:28:17.587Z,1.00
2019-02-10T11:29:22.557Z,1.00
2019-02-10T11:30:27.578Z,1.07
2019-02-10T11:31:32.998Z,1.00
2019-02-10T11:32:37.933Z,0.90
2019-02-10T11:33:42.889Z,1.10
2019-02-10T11:34:47.846Z,0.90
2019-02-10T11:35:53.282Z,0.90
2019-02-10T11:36:58.373Z,1.05
2019-02-10T11:38:03.527Z,1.00
2019-02-10T11:39:09.035Z,0.95
2019-02-10T11:40:14.919Z,0.90
2019-02-10T11:41:20.290Z,0.90
2019-02-10T11:42:25.736Z,1.20
2019-02-10T11:43:31.025Z,0.95
2019-02-10T11:44:36.035Z,0.95
2019-02-10T11:45:41.051Z,1.15
2019-02-10T11:46:46.138Z,0.90
2019-02-10T11:47:51.259Z,1.35
2019-02-10T11:48:56.274Z,1.00
2019-02-10T11:50:01.836Z,1.05
2019-02-10T11:51:07.119Z,0.88
2019-02-10T11:52:12.106Z,1.27
2019-02-10T11:53:17.289Z,1.07
2019-02-10T11:54:22.338Z,1.00
2019-02-10T11:55:27.762Z,0.90
2019-02-10T11:56:32.773Z,1.00
2019-02-10T11:57:38.205Z,1.00
2019-02-10T11:58:43.179Z,0.90
2019-02-10T11:59:48.238Z,1.30
2019-02-10T12:00:53.271Z,1.30
2019-02-10T12:01:58.566Z,0.93
2019-02-10T12:03:03.869Z,1.10
2019-02-10T12:04:08.864Z,1.00
2019-02-10T12:05:13.985Z,1.00
2019-02-10T12:06:19.313Z,1.30
2019-02-10T12:07:24.560Z,1.00
2019-02-10T12:08:35.584Z,1.20
2019-02-10T12:09:36.310Z,1.17
2019-02-10T12:10:41.707Z,1.07
2019-02-10T12:11:46.881Z,1.17
2019-02-10T12:12:52.016Z,1.05
2019-02-10T12:13:57.470Z,1.20
2019-02-10T12:15:03.069Z,1.22
2019-02-10T12:16:08.072Z,1.10
2019-02-10T12:17:13.436Z,1.10
2019-02-10T12:18:18.460Z,1.27
2019-02-10T12:19:23.464Z,1.40
2019-02-10T12:20:28.575Z,1.42
2019-02-10T12:21:33.846Z,1.45
2019-02-10T12:22:39.021Z,1.82
2019-02-10T12:23:43.973Z,1.92
2019-02-10T12:24:49.136Z,1.60
2019-02-10T12:25:54.071Z,1.35
2019-02-10T12:26:58.997Z,1.37
2019-02-10T12:28:04.193Z,1.20
2019-02-10T12:29:09.555Z,1.30
2019-02-10T12:30:14.713Z,1.47
2019-02-10T12:31:19.733Z,1.25
2019-02-10T12:32:24.810Z,1.15
2019-02-10T12:33:29.753Z,1.22
2019-02-10T12:34:35.063Z,1.47
2019-02-10T12:35:40.324Z,1.15
2019-02-10T12:36:45.263Z,1.37
2019-02-10T12:37:50.215Z,1.50
2019-02-10T12:38:55.652Z,1.10
2019-02-10T12:40:01.548Z,1.20
2019-02-10T12:41:06.600Z,1.20
2019-02-10T12:42:11.532Z,1.55
2019-02-10T12:43:16.566Z,1.25
2019-02-10T12:44:21.653Z,1.35
2019-02-10T12:45:26.774Z,1.57
2019-02-10T12:46:31.783Z,1.40
2019-02-10T12:47:36.812Z,1.10
2019-02-10T12:48:42.229Z,1.42
2019-02-10T12:49:47.238Z,2.60
2019-02-10T12:50:52.650Z,1.60
2019-02-10T12:51:58.539Z,1.50
2019-02-10T12:53:03.853Z,1.50
2019-02-10T12:54:08.830Z,1.80
2019-02-10T12:55:14.368Z,1.12
2019-02-10T12:56:19.831Z,1.62
2019-02-10T12:57:25.210Z,1.85
2019-02-10T12:58:30.295Z,1.70
2019-02-10T12:59:35.242Z,1.70
2019-02-10T13:00:40.526Z,1.72
2019-02-10T13:01:45.618Z,1.50
2019-02-10T13:02:50.960Z,1.60
2019-02-10T13:03:55.980Z,1.32
2019-02-10T13:05:01.005Z,1.47
2019-02-10T13:06:06.342Z,1.80
2019-02-10T13:07:11.975Z,1.30
2019-02-10T13:08:17.020Z,1.40
2019-02-10T13:09:22.118Z,1.15
2019-02-10T13:10:27.111Z,1.27
2019-02-10T13:11:32.324Z,1.50
2019-02-10T13:12:37.682Z,1.20
2019-02-10T13:13:42.737Z,1.92
2019-02-10T13:14:47.990Z,1.40
2019-02-10T13:15:55.484Z,1.50
2019-02-10T13:16:59.876Z,1.02
2019-02-10T13:18:04.910Z,1.50
2019-02-10T13:19:10.008Z,1.40
2019-02-10T13:20:15.023Z,1.32
2019-02-10T13:21:20.056Z,1.20
2019-02-10T13:22:25.065Z,1.20
2019-02-10T13:23:30.132Z,1.20
2019-02-10T13:24:35.462Z,1.27
2019-02-10T13:25:40.461Z,1.95
2019-02-10T13:26:45.604Z,1.25
2019-02-10T13:27:50.535Z,1.22
2019-02-10T13:28:55.769Z,1.42
2019-02-10T13:30:02.902Z,1.02
2019-02-10T13:31:07.961Z,1.05
2019-02-10T13:32:13.285Z,1.30
2019-02-10T13:33:18.258Z,1.40
2019-02-10T13:34:23.654Z,1.15
2019-02-10T13:35:28.663Z,1.30
2019-02-10T13:36:33.711Z,1.37
2019-02-10T13:37:38.845Z,1.10
2019-02-10T13:38:43.926Z,1.40
2019-02-10T13:39:48.911Z,1.10
2019-02-10T13:40:54.450Z,1.22
2019-02-10T13:41:59.896Z,1.20
2019-02-10T13:43:04.900Z,1.20
2019-02-10T13:44:10.142Z,1.20
2019-02-10T13:45:15.207Z,1.42
2019-02-10T13:46:20.178Z,1.20
2019-02-10T13:47:25.120Z,1.40
2019-02-10T13:48:30.955Z,1.22
2019-02-10T13:49:35.956Z,1.20
2019-02-10T13:50:40.975Z,1.10
2019-02-10T13:51:45.983Z,1.30
2019-02-10T13:52:51.237Z,1.42
2019-02-10T13:53:56.364Z,1.40
2019-02-10T13:55:01.376Z,1.20
2019-02-10T13:56:06.546Z,1.32
2019-02-10T13:57:11.620Z,1.20
2019-02-10T13:58:16.922Z,1.50
2019-02-10T13:59:22.311Z,1.50
2019-02-10T14:00:28.634Z,1.60
2019-02-10T14:01:33.862Z,1.40
2019-02-10T14:02:38.835Z,1.35
2019-02-10T14:03:44.183Z,1.40
2019-02-10T14:07:06.052Z,1.57
2019-02-10T14:08:11.609Z,1.70
2019-02-10T14:09:16.599Z,1.40
2019-02-10T14:10:25.846Z,1.77
2019-02-10T14:11:28.854Z,1.75
2019-02-10T14:12:33.788Z,1.50
2019-02-10T14:13:38.718Z,1.80
2019-02-10T14:14:43.718Z,1.60
2019-02-10T14:15:48.688Z,1.25
2019-02-10T14:16:54.011Z,1.80
2019-02-10T14:17:58.960Z,1.70
2019-02-10T14:19:04.296Z,1.85
2019-02-10T14:20:11.599Z,1.60
2019-02-10T14:21:16.578Z,1.30
2019-02-10T14:22:21.579Z,1.30
2019-02-10T14:23:26.488Z,1.40
2019-02-10T14:24:31.639Z,1.32
2019-02-10T14:25:37.088Z,1.30
2019-02-10T14:26:42.327Z,1.37
2019-02-10T14:27:47.344Z,1.40
2019-02-10T14:28:52.301Z,1.30
2019-02-10T14:29:57.998Z,1.20
2019-02-10T14:31:04.359Z,1.20
2019-02-10T14:32:09.375Z,1.47
2019-02-10T14:33:14.298Z,1.37
2019-02-10T14:34:19.746Z,1.70
2019-02-10T14:35:24.816Z,1.27
2019-02-10T14:36:29.764Z,1.40
2019-02-10T14:37:34.783Z,1.32
2019-02-10T14:38:39.748Z,1.40
2019-02-10T14:39:44.697Z,1.40
2019-02-10T14:40:49.751Z,1.40
2019-02-10T14:41:54.744Z,1.47
2019-02-10T14:42:59.977Z,1.30
2019-02-10T14:44:05.003Z,1.10
2019-02-10T14:45:10.337Z,1.20
2019-02-10T14:46:15.486Z,1.20
2019-02-10T14:47:20.439Z,1.10
2019-02-10T14:48:25.482Z,1.22
2019-02-10T14:49:30.394Z,1.32
2019-02-10T14:50:35.330Z,1.20
2019-02-10T14:51:40.791Z,1.00
2019-02-10T14:52:45.971Z,1.00
2019-02-10T14:53:51.039Z,1.00
2019-02-10T14:54:55.951Z,1.00
2019-02-10T14:56:01.428Z,1.15
2019-02-10T14:57:06.406Z,1.00
2019-02-10T14:58:11.359Z,1.10
2019-02-10T14:59:16.300Z,0.90
2019-02-10T15:00:21.322Z,1.10
2019-02-10T15:01:26.325Z,1.10
2019-02-10T15:02:31.327Z,1.15
2019-02-10T15:03:39.370Z,0.90
2019-02-10T15:04:44.461Z,1.00
2019-02-10T15:05:49.478Z,1.00